Time;durP1;ratioP1;P1;durP2;ratioP2;P2;SDS_P1;SDS_P2;PMS_P1;PMS_P2;Temp;Humidity;BMP_temperature;BMP_pressure;BME280_temperature;BME280_humidity;BME280_pressure;Samples;Min_cycle;Max_cycle;Signal;HPM_P1;HPM_P2
2022/12/17 13:07:20;;;;;;;;;;;;;;;0.95;100.00;98748.59;5119043;28;20018;-57
2022/12/17 13:09:49;;;;;;;;;;;;;;;0.83;100.00;98748.25;5122083;28;20019;-59
2022/12/17 13:12:18;;;;;;;;;;;;;;;0.91;100.00;98753.41;5122549;28;19931;-57
2022/12/17 13:14:49;;;;;;;;;;;;;;;1.06;100.00;98753.41;5119992;28;19974;-59
2022/12/17 13:17:26;;;;;;;;;;;;;;;1.14;100.00;98755.13;5118976;28;19924;-58
2022/12/17 13:20:00;;;;;;;;;;;;;;;1.23;100.00;98762.75;5119230;28;19995;-58
2022/12/17 13:22:28;;;;;;;;;;;;;;;1.36;100.00;98759.47;5118848;28;19928;-58
2022/12/17 13:24:55;;;;;;;;;;;;;;;1.36;100.00;98762.91;5114543;28;19924;-59
2022/12/17 13:27:28;;;;;;;;;;;;;;;1.42;100.00;98775.34;5122524;28;19960;-59
2022/12/17 13:29:56;;;;;;;;;;;;;;;1.34;100.00;98762.28;5118702;28;19948;-61
2022/12/17 13:32:25;;;;;;;;;;;;;;;1.46;100.00;98762.59;5119012;28;19979;-60
2022/12/17 13:34:59;;;;;;;;;;;;;;;1.34;100.00;98764.09;5118707;28;19947;-61
2022/12/17 13:37:30;;;;;;;;;;;;;;;1.23;100.00;98772.44;5118552;28;19967;-60
2022/12/17 13:40:02;;;;;;;;;;;;;;;1.24;100.00;98780.16;5109976;28;19950;-61
2022/12/17 13:42:29;;;;;;;;;;;;;;;1.22;100.00;98778.69;5109994;28;19928;-60
2022/12/17 13:44:57;;;;;;;;;;;;;;;1.28;100.00;98781.44;5110041;28;19991;-61
2022/12/17 13:47:25;;;;;;;;;;;;;;;1.32;100.00;98787.16;5109846;28;19920;-59
2022/12/17 13:49:52;;;;;;;;;;;;;;;1.19;100.00;98784.34;5113416;28;19935;-60
2022/12/17 13:52:19;;;;;;;;;;;;;;;1.12;100.00;98793.94;5119563;28;19927;-60
2022/12/17 13:54:45;;;;;;;;;;;;;;;1.10;100.00;98796.75;5112364;28;19934;-59
2022/12/17 13:57:14;;;;;;;;;;;;;;;0.98;100.00;98806.91;5121572;28;19991;-61
2022/12/17 13:59:41;;;;;;;;;;;;;;;0.90;100.00;98801.72;5119961;28;19966;-60
2022/12/17 14:02:23;;;;;;;;;;;;;;;0.98;100.00;98806.09;5118502;28;19931;-59
2022/12/17 14:04:51;;;;;;;;;;;;;;;1.11;100.00;98808.94;5121583;28;19995;-60
2022/12/17 14:07:18;;;;;;;;;;;;;;;1.18;100.00;98803.75;5121816;28;20709;-59
2022/12/17 14:09:44;;;;;;;;;;;;;;;1.17;100.00;98817.91;5118778;28;19979;-59
2022/12/17 14:12:24;;;;;;;;;;;;;;;1.07;100.00;98815.53;5117889;28;19934;-60
2022/12/17 14:14:53;;;;;;;;;;;;;;;1.06;100.00;98821.78;5121232;28;19987;-60
2022/12/17 14:17:20;;;;;;;;;;;;;;;0.99;100.00;98826.16;5120864;28;19955;-59
2022/12/17 14:19:50;;;;;;;;;;;;;;;0.99;100.00;98824.31;5118314;28;19986;-60
2022/12/17 14:22:20;;;;;;;;;;;;;;;0.91;100.00;98819.16;5121723;27;20035;-60
2022/12/17 14:24:46;;;;;;;;;;;;;;;1.03;100.00;98824.78;5103861;28;19932;-61
2022/12/17 14:27:22;;;;;;;;;;;;;;;1.16;100.00;98832.03;5121304;28;19963;-61
2022/12/17 14:29:49;;;;;;;;;;;;;;;1.33;100.00;98836.16;5117722;28;19928;-60
2022/12/17 14:32:22;;;;;;;;;;;;;;;1.40;100.00;98834.41;5117626;28;19988;-61
2022/12/17 14:34:50;;;;;;;;;;;;;;;1.36;100.00;98835.78;5120645;28;19972;-59
2022/12/17 14:37:17;;;;;;;;;;;;;;;1.36;100.00;98833.94;5120788;28;19923;-61
2022/12/17 14:39:45;;;;;;;;;;;;;;;1.29;100.00;98846.22;5118590;28;19979;-60
2022/12/17 14:44:59;;;;;;;;;;;;;;;1.14;100.00;98841.94;5108932;28;20107;-60
2022/12/17 14:47:27;;;;;;;;;;;;;;;1.00;100.00;98844.38;5109152;28;19928;-61
2022/12/17 14:49:56;;;;;;;;;;;;;;;0.96;100.00;98850.97;5117628;28;19963;-59
2022/12/17 14:52:26;;;;;;;;;;;;;;;0.93;100.00;98850.50;5123031;27;19928;-61
2022/12/17 14:54:52;;;;;;;;;;;;;;;0.96;100.00;98863.34;5117301;28;19924;-60
2022/12/17 14:57:20;;;;;;;;;;;;;;;0.96;100.00;98858.88;5099164;28;19938;-59
2022/12/17 14:59:46;;;;;;;;;;;;;;;1.00;100.00;98859.34;5120245;28;19927;-61
2022/12/17 15:02:17;;;;;;;;;;;;;;;1.07;100.00;98858.44;5120822;28;19987;-61
2022/12/17 15:04:44;;;;;;;;;;;;;;;1.13;100.00;98853.44;5118268;28;19987;-60
2022/12/17 15:07:13;;;;;;;;;;;;;;;1.17;100.00;98860.00;5117244;28;19925;-59
2022/12/17 15:09:40;;;;;;;;;;;;;;;1.18;100.00;98865.06;5119153;28;20486;-60
2022/12/17 15:12:07;;;;;;;;;;;;;;;1.21;100.00;98869.19;5120733;28;19924;-61
2022/12/17 15:14:33;;;;;;;;;;;;;;;1.19;100.00;98873.78;5119762;28;20026;-61
2022/12/17 15:17:00;;;;;;;;;;;;;;;1.20;100.00;98880.69;5117292;28;19927;-60
2022/12/17 15:19:26;;;;;;;;;;;;;;;1.14;100.00;98886.66;5117214;28;19932;-60
2022/12/17 15:21:53;;;;;;;;;;;;;;;1.13;100.00;98877.13;5120809;28;19924;-60
2022/12/17 15:24:20;;;;;;;;;;;;;;;1.15;100.00;98888.28;5125071;27;19923;-60
2022/12/17 15:26:47;;;;;;;;;;;;;;;1.16;100.00;98879.41;5120131;28;19928;-60
2022/12/17 15:29:14;;;;;;;;;;;;;;;1.17;100.00;98886.31;5121150;28;19963;-60
2022/12/17 15:31:40;;;;;;;;;;;;;;;1.18;100.00;98887.97;5122498;28;19927;-60
2022/12/17 15:34:06;;;;;;;;;;;;;;;1.19;100.00;98894.81;5121231;28;19924;-60
2022/12/17 15:36:33;;;;;;;;;;;;;;;1.13;100.00;98895.53;5121990;28;20019;-60
2022/12/17 15:38:59;;;;;;;;;;;;;;;1.16;100.00;98897.81;5124686;28;19935;-61
2022/12/17 15:44:11;;;;;;;;;;;;;;;1.07;100.00;98897.91;5112563;28;19935;-61
2022/12/17 15:46:38;;;;;;;;;;;;;;;1.08;100.00;98899.53;5112474;28;19924;-62
2022/12/17 15:49:04;;;;;;;;;;;;;;;1.07;100.00;98915.50;5112493;28;19986;-62
2022/12/17 15:51:31;;;;;;;;;;;;;;;1.00;100.00;98920.66;5112295;28;19970;-60
2022/12/17 15:53:57;;;;;;;;;;;;;;;1.03;100.00;98919.47;5127477;27;19924;-61
2022/12/17 15:56:24;;;;;;;;;;;;;;;1.00;100.00;98912.75;5120669;28;19994;-62
2022/12/17 15:58:52;;;;;;;;;;;;;;;1.04;100.00;98921.94;5124199;28;19988;-62
2022/12/17 16:01:19;;;;;;;;;;;;;;;0.94;100.00;98917.91;5124028;28;19955;-62
2022/12/17 16:03:45;;;;;;;;;;;;;;;0.93;100.00;98911.81;5121210;28;20014;-60
2022/12/17 16:06:12;;;;;;;;;;;;;;;1.14;100.00;98923.50;5120158;28;19981;-62
2022/12/17 16:08:38;;;;;;;;;;;;;;;1.10;100.00;98920.41;5122066;28;19998;-59
2022/12/17 16:11:06;;;;;;;;;;;;;;;1.08;100.00;98917.94;5124058;28;19948;-61
2022/12/17 16:13:32;;;;;;;;;;;;;;;1.01;100.00;98909.13;5122987;28;19987;-60
2022/12/17 16:16:00;;;;;;;;;;;;;;;0.89;100.00;98915.81;5120342;28;19934;-59
2022/12/17 16:18:26;;;;;;;;;;;;;;;0.55;100.00;98920.69;5120391;28;20004;-59
2022/12/17 16:20:52;;;;;;;;;;;;;;;0.28;100.00;98923.81;5111836;28;19947;-59
2022/12/17 16:23:19;;;;;;;;;;;;;;;-0.08;100.00;98926.09;5125825;27;20422;-59
2022/12/17 16:25:54;;;;;;;;;;;;;;;-0.39;100.00;98928.66;5120811;28;19994;-60
2022/12/17 16:28:20;;;;;;;;;;;;;;;-0.40;100.00;98927.03;5119841;28;19988;-60
2022/12/17 16:30:56;;;;;;;;;;;;;;;-0.28;100.00;98924.88;5122623;28;19969;-59
2022/12/17 16:33:24;;;;;;;;;;;;;;;0.05;100.00;98923.75;5123285;28;19971;-59
2022/12/17 16:35:51;;;;;;;;;;;;;;;0.23;100.00;98929.56;5120028;28;19983;-59
2022/12/17 16:38:17;;;;;;;;;;;;;;;0.20;100.00;98929.09;5119844;28;19983;-59
2022/12/17 16:40:43;;;;;;;;;;;;;;;0.33;100.00;98934.59;5121512;28;19939;-59
2022/12/17 16:43:10;;;;;;;;;;;;;;;0.44;100.00;98928.94;5123062;28;19983;-59
2022/12/17 16:45:45;;;;;;;;;;;;;;;0.51;100.00;98937.78;5121603;28;19928;-59
2022/12/17 16:48:12;;;;;;;;;;;;;;;0.54;100.00;98938.25;5119484;28;19934;-59
2022/12/17 16:50:39;;;;;;;;;;;;;;;0.62;100.00;98940.00;5121054;28;19993;-59
2022/12/17 16:53:06;;;;;;;;;;;;;;;0.65;100.00;98942.28;5129512;27;19934;-59
2022/12/17 16:55:32;;;;;;;;;;;;;;;0.69;100.00;98948.81;5122114;28;19923;-59
2022/12/17 16:57:58;;;;;;;;;;;;;;;0.69;100.00;98940.13;5119464;28;19991;-59
2022/12/17 17:00:25;;;;;;;;;;;;;;;0.56;100.00;98940.69;5119465;28;19987;-58
2022/12/17 17:02:51;;;;;;;;;;;;;;;0.28;100.00;98936.94;5122737;28;19967;-58
2022/12/17 17:05:17;;;;;;;;;;;;;;;0.14;100.00;98938.47;5122908;28;19974;-60
2022/12/17 17:07:45;;;;;;;;;;;;;;;-0.01;100.00;98945.44;5120367;28;19920;-58
2022/12/17 17:10:11;;;;;;;;;;;;;;;0.11;100.00;98951.97;5119302;28;19980;-59
2022/12/17 17:12:37;;;;;;;;;;;;;;;0.28;100.00;98950.09;5120622;28;20500;-57
2022/12/17 17:15:04;;;;;;;;;;;;;;;0.36;100.00;98955.28;5122777;28;19998;-59
2022/12/17 17:17:30;;;;;;;;;;;;;;;0.44;100.00;98961.31;5122072;28;19927;-60
2022/12/17 17:19:57;;;;;;;;;;;;;;;0.52;100.00;98960.44;5119203;28;19991;-59
2022/12/17 17:22:23;;;;;;;;;;;;;;;0.55;100.00;98968.00;5124773;27;19988;-59
2022/12/17 17:24:51;;;;;;;;;;;;;;;0.46;100.00;98969.03;5122735;27;19920;-59
2022/12/17 17:27:17;;;;;;;;;;;;;;;0.14;100.00;98963.91;5122279;28;19934;-59
2022/12/17 17:29:43;;;;;;;;;;;;;;;0.12;100.00;98966.72;5119724;28;19934;-59
2022/12/17 17:32:10;;;;;;;;;;;;;;;-0.07;100.00;98975.00;5119034;28;19996;-58
2022/12/17 17:34:36;;;;;;;;;;;;;;;0.05;100.00;98962.31;5120279;28;19927;-58
2022/12/17 17:37:02;;;;;;;;;;;;;;;0.17;100.00;98972.28;5122495;28;20376;-59
2022/12/17 17:39:31;;;;;;;;;;;;;;;0.28;100.00;98969.25;5121960;28;19955;-58
2022/12/17 17:41:59;;;;;;;;;;;;;;;0.32;100.00;98980.25;5119066;28;19924;-59
2022/12/17 17:44:26;;;;;;;;;;;;;;;0.33;100.00;98987.16;5118875;28;19970;-59
2022/12/17 17:46:52;;;;;;;;;;;;;;;0.32;100.00;98983.69;5110412;28;19987;-59
2022/12/17 17:49:19;;;;;;;;;;;;;;;0.35;100.00;98987.78;5109764;28;19924;-58
2022/12/17 17:51:45;;;;;;;;;;;;;;;0.37;100.00;98997.13;5109805;28;19970;-58
2022/12/17 17:54:12;;;;;;;;;;;;;;;0.17;100.00;98992.47;5124207;28;19992;-58
2022/12/17 17:56:39;;;;;;;;;;;;;;;-0.40;100.00;99002.34;5120071;28;19924;-59
2022/12/17 17:59:07;;;;;;;;;;;;;;;-0.53;100.00;99009.88;5121697;28;19928;-59
2022/12/17 18:01:34;;;;;;;;;;;;;;;-0.62;100.00;99024.81;5120698;28;19924;-59
2022/12/17 18:04:01;;;;;;;;;;;;;;;-0.77;100.00;99019.41;5118427;28;19967;-59
2022/12/17 18:06:28;;;;;;;;;;;;;;;-0.79;100.00;99024.00;5118484;28;19983;-59
2022/12/17 18:08:55;;;;;;;;;;;;;;;-0.66;100.00;99028.75;5121986;28;19924;-59
2022/12/17 18:11:22;;;;;;;;;;;;;;;-0.60;100.00;99022.84;5121514;28;19938;-58
2022/12/17 18:13:56;;;;;;;;;;;;;;;-0.92;100.00;99033.31;5118599;28;19946;-58
2022/12/17 18:16:27;;;;;;;;;;;;;;;-0.93;100.00;99037.78;5118188;28;19950;-59
2022/12/17 18:18:54;;;;;;;;;;;;;;;-0.92;100.00;99036.75;5118113;28;19946;-58
2022/12/17 18:21:20;;;;;;;;;;;;;;;-1.03;100.00;99041.50;5118022;28;19924;-60
2022/12/17 18:23:47;;;;;;;;;;;;;;;-1.09;100.00;99050.84;5129834;27;19978;-59
2022/12/17 18:26:15;;;;;;;;;;;;;;;-1.26;100.00;99052.59;5118006;28;19966;-58
2022/12/17 18:28:42;;;;;;;;;;;;;;;-1.12;100.00;99052.00;5119852;28;19991;-59
2022/12/17 18:31:09;;;;;;;;;;;;;;;-1.37;100.00;99052.91;5121205;28;19924;-58
2022/12/17 18:33:38;;;;;;;;;;;;;;;-1.51;100.00;99056.13;5119772;28;19924;-60
2022/12/17 18:36:09;;;;;;;;;;;;;;;-1.30;100.00;99055.72;5117646;28;19924;-59
2022/12/17 18:38:35;;;;;;;;;;;;;;;-1.23;100.00;99060.16;5118950;28;19984;-59
2022/12/17 18:43:21;;;;;;;;;;;;;;;-1.53;100.00;99063.34;5121191;28;19987;-60
2022/12/17 18:43:50;;;;;;;;;;;;;;;-1.39;100.00;99070.56;5099496;28;19928;-58
2022/12/17 18:46:16;;;;;;;;;;;;;;;-1.68;100.00;99076.22;5117408;28;19955;-59
2022/12/17 18:48:44;;;;;;;;;;;;;;;-1.63;100.00;99079.16;5119624;28;19920;-59
2022/12/17 18:51:10;;;;;;;;;;;;;;;-1.54;100.00;99079.19;5121009;28;20015;-58
2022/12/17 18:53:36;;;;;;;;;;;;;;;-1.32;100.00;99082.06;5126426;28;19987;-57
2022/12/17 18:56:06;;;;;;;;;;;;;;;-1.32;100.00;99089.94;5117666;28;20012;-60
2022/12/17 18:58:33;;;;;;;;;;;;;;;-1.31;100.00;99094.19;5118150;28;19924;-58
2022/12/17 19:00:59;;;;;;;;;;;;;;;-1.33;100.00;99082.25;5120970;28;20571;-58
2022/12/17 19:03:25;;;;;;;;;;;;;;;-1.45;100.00;99096.59;5121031;28;19959;-59
2022/12/17 19:05:53;;;;;;;;;;;;;;;-1.57;100.00;99098.66;5121545;28;19935;-60
2022/12/17 19:08:19;;;;;;;;;;;;;;;-1.90;100.00;99102.09;5121446;28;19999;-60
2022/12/17 19:10:46;;;;;;;;;;;;;;;-2.14;100.00;99115.88;5124041;28;19971;-58
2022/12/17 19:13:12;;;;;;;;;;;;;;;-2.58;100.00;99117.66;5124938;28;19928;-60
2022/12/17 19:15:38;;;;;;;;;;;;;;;-2.73;100.00;99121.75;5123232;28;19954;-58
2022/12/17 19:18:05;;;;;;;;;;;;;;;-3.16;100.00;99126.88;5121289;28;19955;-58
2022/12/17 19:20:31;;;;;;;;;;;;;;;-3.54;100.00;99127.88;5121711;28;19930;-59
2022/12/17 19:22:59;;;;;;;;;;;;;;;-3.82;100.00;99132.25;5131621;27;20002;-59
2022/12/17 19:25:25;;;;;;;;;;;;;;;-3.96;100.00;99143.16;5124415;28;19943;-60
2022/12/17 19:27:51;;;;;;;;;;;;;;;-3.77;100.00;99129.19;5121008;28;20033;-60
2022/12/17 19:30:18;;;;;;;;;;;;;;;-3.69;100.00;99140.59;5120633;28;19924;-57
2022/12/17 19:32:44;;;;;;;;;;;;;;;-3.07;100.00;99141.66;5123159;28;19924;-58
2022/12/17 19:35:10;;;;;;;;;;;;;;;-3.09;100.00;99143.59;5124286;28;19951;-59
2022/12/17 19:37:37;;;;;;;;;;;;;;;-2.91;100.00;99150.47;5122832;28;19978;-59
2022/12/17 19:40:05;;;;;;;;;;;;;;;-2.74;100.00;99148.88;5120655;28;19924;-59
2022/12/17 19:42:31;;;;;;;;;;;;;;;-1.92;100.00;99151.19;5120728;28;19955;-60
2022/12/17 19:44:57;;;;;;;;;;;;;;;-1.86;100.00;99142.72;5123741;28;20010;-59
2022/12/17 19:47:24;;;;;;;;;;;;;;;-2.22;100.00;99141.97;5124015;28;19931;-58
2022/12/17 19:49:50;;;;;;;;;;;;;;;-2.37;100.00;99146.91;5120989;28;19987;-58
2022/12/17 19:52:17;;;;;;;;;;;;;;;-2.67;100.00;99147.31;5124377;27;19963;-59
2022/12/17 19:54:43;;;;;;;;;;;;;;;-0.65;100.00;99148.44;5125034;27;19928;-59
2022/12/17 19:57:11;;;;;;;;;;;;;;;5.18;100.00;99135.38;5123848;28;19979;-60
2022/12/17 19:59:37;;;;;;;;;;;;;;;6.65;100.00;99125.50;5122379;28;20024;-58
2022/12/17 20:02:04;;;;;;;;;;;;;;;7.25;100.00;99125.06;5120183;28;19924;-59
2022/12/17 20:04:30;;;;;;;;;;;;;;;7.65;100.00;99117.69;5120665;28;19920;-59
2022/12/17 20:06:57;;;;;;;;;;;;;;;7.87;99.42;99126.13;5123496;28;19924;-59
2022/12/17 20:09:24;;;;;;;;;;;;;;;8.06;97.10;99133.97;5123438;28;19923;-58
2022/12/17 20:11:50;;;;;;;;;;;;;;;8.23;93.59;99123.59;5120344;28;19947;-60
2022/12/17 20:14:19;;;;;;;;;;;;;;;8.36;91.33;99112.84;5119860;28;19991;-59
2022/12/17 20:16:46;;;;;;;;;;;;;;;8.18;89.73;99120.75;5121643;28;19932;-58
2022/12/17 20:19:14;;;;;;;;;;;;;;;6.10;91.88;99124.13;5123503;28;19991;-60
2022/12/17 20:21:41;;;;;;;;;;;;;;;4.93;100.00;99128.13;5121376;28;19920;-60
2022/12/17 20:24:07;;;;;;;;;;;;;;;4.00;100.00;99137.31;5126873;27;19928;-61
2022/12/17 20:26:35;;;;;;;;;;;;;;;3.57;100.00;99141.00;5120494;28;19924;-60
2022/12/17 20:29:02;;;;;;;;;;;;;;;2.97;100.00;99136.88;5123148;28;20014;-59
2022/12/17 20:31:29;;;;;;;;;;;;;;;2.51;100.00;99138.91;5122845;28;19927;-61
2022/12/17 20:33:57;;;;;;;;;;;;;;;1.74;100.00;99134.88;5119579;28;19979;-59
2022/12/17 20:36:25;;;;;;;;;;;;;;;1.25;100.00;99137.03;5119564;28;20034;-60
2022/12/17 20:38:51;;;;;;;;;;;;;;;1.27;100.00;99128.97;5123107;28;20017;-59
2022/12/17 20:41:19;;;;;;;;;;;;;;;0.70;100.00;99131.88;5123492;28;19980;-62
2022/12/17 20:43:45;;;;;;;;;;;;;;;0.26;100.00;99128.06;5120427;28;19920;-59
2022/12/17 20:46:12;;;;;;;;;;;;;;;-0.23;100.00;99136.00;5119469;28;19999;-60
2022/12/17 20:48:40;;;;;;;;;;;;;;;-0.61;100.00;99134.84;5120956;28;19930;-59
2022/12/17 20:51:07;;;;;;;;;;;;;;;-0.20;100.00;99126.97;5123119;28;19992;-60
2022/12/17 20:53:34;;;;;;;;;;;;;;;0.01;100.00;99129.91;5128982;27;20006;-59
2022/12/17 20:56:01;;;;;;;;;;;;;;;-0.07;100.00;99143.88;5119558;28;19924;-61
2022/12/17 20:58:28;;;;;;;;;;;;;;;-0.46;100.00;99135.00;5119489;28;19968;-59
2022/12/17 21:01:01;;;;;;;;;;;;;;;-0.35;100.00;99141.75;5122953;28;19987;-60
2022/12/17 21:03:27;;;;;;;;;;;;;;;-0.06;100.00;99145.50;5123142;28;19938;-60
2022/12/17 21:05:55;;;;;;;;;;;;;;;0.36;100.00;99150.53;5119482;28;19928;-59
2022/12/17 21:08:21;;;;;;;;;;;;;;;0.62;100.00;99154.75;5119176;28;19963;-60
2022/12/17 21:10:48;;;;;;;;;;;;;;;0.69;100.00;99159.16;5122219;28;19939;-60
2022/12/17 21:13:29;;;;;;;;;;;;;;;0.50;100.00;99159.53;5122590;28;20639;-60
2022/12/17 21:15:55;;;;;;;;;;;;;;;0.61;100.00;99153.09;5119154;28;19932;-60
2022/12/17 21:18:22;;;;;;;;;;;;;;;0.42;100.00;99160.38;5119063;28;19951;-60
2022/12/17 21:20:54;;;;;;;;;;;;;;;0.49;100.00;99166.63;5121874;28;20003;-59
2022/12/17 21:23:21;;;;;;;;;;;;;;;0.59;100.00;99165.59;5129588;27;19923;-59
2022/12/17 21:25:47;;;;;;;;;;;;;;;0.47;100.00;99165.13;5119847;28;20979;-59
2022/12/17 21:28:13;;;;;;;;;;;;;;;0.42;100.00;99164.81;5118881;28;20003;-60
2022/12/17 21:30:40;;;;;;;;;;;;;;;0.34;100.00;99170.09;5120623;28;20033;-61
2022/12/17 21:33:06;;;;;;;;;;;;;;;0.37;100.00;99161.88;5122754;28;19924;-60
2022/12/17 21:35:32;;;;;;;;;;;;;;;-0.07;100.00;99171.94;5121895;28;19966;-60
2022/12/17 21:38:00;;;;;;;;;;;;;;;-0.34;100.00;99173.06;5119144;28;19924;-59
2022/12/17 21:40:26;;;;;;;;;;;;;;;-0.55;100.00;99170.09;5119191;28;19955;-59
2022/12/17 21:43:01;;;;;;;;;;;;;;;-0.21;100.00;99162.09;5110349;28;19996;-59
2022/12/17 21:45:28;;;;;;;;;;;;;;;-0.03;100.00;99168.81;5110285;28;19938;-60
2022/12/17 21:47:54;;;;;;;;;;;;;;;-1.01;100.00;99158.34;5110372;28;20011;-59
2022/12/17 21:50:20;;;;;;;;;;;;;;;-1.42;100.00;99175.69;5110258;28;20071;-60
2022/12/17 21:52:47;;;;;;;;;;;;;;;-1.58;100.00;99165.16;5119928;27;19962;-60
2022/12/17 21:55:14;;;;;;;;;;;;;;;-1.52;100.00;99172.38;5122160;28;19938;-60
2022/12/17 21:57:41;;;;;;;;;;;;;;;-1.64;100.00;99163.94;5119933;28;19983;-60
2022/12/17 22:00:08;;;;;;;;;;;;;;;-1.82;100.00;99175.44;5118561;28;19988;-60
2022/12/17 22:02:34;;;;;;;;;;;;;;;-1.70;100.00;99177.66;5119456;28;19948;-60
2022/12/17 22:05:00;;;;;;;;;;;;;;;-1.80;100.00;99181.38;5121808;28;19924;-60
2022/12/17 22:07:27;;;;;;;;;;;;;;;-1.80;100.00;99186.63;5121897;28;19979;-60
2022/12/17 22:09:53;;;;;;;;;;;;;;;-1.56;100.00;99184.16;5110099;28;19924;-59
2022/12/17 22:15:05;;;;;;;;;;;;;;;-1.35;100.00;99189.81;5118264;28;19923;-59
2022/12/17 22:17:32;;;;;;;;;;;;;;;-1.39;100.00;99196.34;5118680;28;20015;-61
2022/12/17 22:19:58;;;;;;;;;;;;;;;-1.68;100.00;99194.06;5121595;28;19970;-60
2022/12/17 22:22:24;;;;;;;;;;;;;;;-1.81;100.00;99201.50;5124616;27;19939;-58
2022/12/17 22:24:51;;;;;;;;;;;;;;;-2.11;100.00;99193.25;5121673;28;19947;-59
2022/12/17 22:27:17;;;;;;;;;;;;;;;-2.14;100.00;99193.56;5121566;28;19995;-60
2022/12/17 22:35:12;;;;;;;;;;;;;;;-1.72;100.00;99210.22;5136927;27;19999;-58
2022/12/17 22:37:38;;;;;;;;;;;;;;;-2.19;100.00;99207.91;5119653;28;19996;-59
2022/12/17 22:40:05;;;;;;;;;;;;;;;-2.52;100.00;99208.59;5117379;28;19928;-59
2022/12/17 22:45:17;;;;;;;;;;;;;;;-2.21;100.00;99222.94;5121225;28;19924;-59
2022/12/17 22:47:43;;;;;;;;;;;;;;;-2.11;100.00;99214.19;5119167;28;19979;-60
2022/12/17 22:50:10;;;;;;;;;;;;;;;-1.39;100.00;99212.06;5117720;28;19931;-59
2022/12/17 22:52:36;;;;;;;;;;;;;;;-1.51;100.00;99223.78;5126023;28;19935;-60
2022/12/17 22:55:03;;;;;;;;;;;;;;;-1.87;100.00;99222.22;5121190;28;20345;-60
2022/12/17 22:57:29;;;;;;;;;;;;;;;-2.31;100.00;99223.97;5120807;28;20015;-60
2022/12/17 22:59:56;;;;;;;;;;;;;;;-2.13;100.00;99219.56;5117881;28;19991;-60
2022/12/17 23:02:23;;;;;;;;;;;;;;;-2.38;100.00;99231.59;5117605;28;19924;-60
2022/12/17 23:04:50;;;;;;;;;;;;;;;-2.39;100.00;99232.59;5121079;28;20007;-60
2022/12/17 23:07:16;;;;;;;;;;;;;;;-2.27;100.00;99231.41;5121033;28;20435;-59
2022/12/17 23:09:42;;;;;;;;;;;;;;;-2.05;100.00;99234.53;5118945;28;20029;-59
2022/12/17 23:14:49;;;;;;;;;;;;;;;-1.42;100.00;99235.97;5119456;28;19923;-60
2022/12/17 23:17:15;;;;;;;;;;;;;;;-1.34;100.00;99233.41;5120788;28;20022;-59
2022/12/17 23:19:43;;;;;;;;;;;;;;;-1.44;100.00;99239.72;5118865;28;20024;-61
2022/12/17 23:22:09;;;;;;;;;;;;;;;-1.16;100.00;99225.47;5119330;28;19951;-59
2022/12/17 23:24:35;;;;;;;;;;;;;;;-1.58;100.00;99232.44;5123090;28;20098;-60
2022/12/17 23:27:02;;;;;;;;;;;;;;;-1.58;100.00;99230.63;5120942;28;19930;-60
2022/12/17 23:29:28;;;;;;;;;;;;;;;-1.32;100.00;99234.06;5120687;28;19934;-61
2022/12/17 23:31:54;;;;;;;;;;;;;;;-1.16;100.00;99233.31;5117157;28;19928;-60
2022/12/17 23:34:21;;;;;;;;;;;;;;;-1.34;100.00;99236.03;5117093;28;19987;-60
2022/12/17 23:36:48;;;;;;;;;;;;;;;-1.84;100.00;99224.53;5119740;28;19947;-60
2022/12/17 23:39:15;;;;;;;;;;;;;;;-2.26;100.00;99235.63;5120690;28;19991;-60
2022/12/17 23:41:41;;;;;;;;;;;;;;;-2.41;100.00;99233.69;5118689;28;20010;-59
2022/12/17 23:44:07;;;;;;;;;;;;;;;-2.61;100.00;99243.47;5117156;28;19983;-60
2022/12/17 23:46:33;;;;;;;;;;;;;;;-2.75;100.00;99231.69;5118109;28;19924;-59
2022/12/17 23:49:00;;;;;;;;;;;;;;;-2.72;100.00;99238.44;5120947;28;19930;-59
2022/12/17 23:51:27;;;;;;;;;;;;;;;-2.60;100.00;99234.63;5122492;28;19928;-59
2022/12/17 23:53:54;;;;;;;;;;;;;;;-2.58;100.00;99235.31;5128241;27;19924;-60
2022/12/17 23:56:22;;;;;;;;;;;;;;;-2.59;100.00;99230.22;5120896;28;19987;-59
2022/12/17 23:58:51;;;;;;;;;;;;;;;-2.41;100.00;99221.44;5124031;28;19983;-59
